Southern California Logo

Chula Vista, CA Condo Real Estate Listings

183 Total Real Estate Listings * Click on table heading to sort
Date Posted Property Type Style Address Price Living Area Lot Size Price/Sq Ft.
2018-03-25 Condo 1287 Haglar Way Chula Vista, CA 91913 $399,000 1,458 sq. ft. $274
2018-03-25 Condo 1890 Chambery Place Chula Vista, CA 91913 $339,900 959 sq. ft. $354
2018-03-25 Condo 2848 Bear Valley Road Chula Vista, CA 91915 $535,000 1,651 sq. ft. $324
2018-03-25 Condo 264 Salinas Dr Chula Vista, CA 91914 $379,000 1,061 sq. ft. 446,054 sq. ft. $357
2018-03-24 Condo Craftsman 1820 Lynx Terrace Chula Vista, CA 91915 $619,490 2,659 sq. ft. $233
2018-03-24 Condo 1025 Fourth Ave Chula Vista, CA 91911 $289,000 835 sq. ft. 26,572 sq. ft. $346
2018-03-24 Condo 1855 Fargo Ln Chula Vista, CA 91913 $375,000 1,209 sq. ft. $310
2018-03-23 Condo 1065 Torrey Pines Rd Chula Vista, CA 91915 $444,444 1,264 sq. ft. $352
2018-03-23 Condo 1760 E Palomar Street Chula Vista, CA 91913 $349,900 1,110 sq. ft. $315
2018-03-23 Condo 271 Rancho Ct Chula Vista, CA 91911 $350,000 1,274 sq. ft. $275
2018-03-23 Condo 2257 Birds Nest Lane Chula Vista, CA 91915 $515,000 1,950 sq. ft. $264
2018-03-23 Condo Mediterranean/Spanish 2729 Wild Cherry Ct Chula Vista, CA 91915 $350,000 964 sq. ft. $363
2018-03-23 Condo 2284 Cabo Bahia Chula Vista, CA 91914 $375,000 1,086 sq. ft. 33,977 sq. ft. $345
2018-03-22 Condo 2045 Barbados Cv Chula Vista, CA 91915 $449,900 1,525 sq. ft. 57,064 sq. ft. $295
2018-03-22 Condo 823 Caminito Siena Chula Vista, CA 91911 $525,000 1,705 sq. ft. 61,420 sq. ft. $308
2018-03-22 Condo 264 Rancho Ct C Chula Vista, CA 91911 $375,000 1,550 sq. ft. $242
2018-03-22 Condo 1252 Stagecoach Trail Loop Chula Vista, CA 91915 $449,000 1,368 sq. ft. $328
2018-03-22 Condo 2281 Huntington Point Rd Chula Vista, CA 91914 $415,000 1,410 sq. ft. 72,745 sq. ft. $294
2018-03-22 Condo 2740 Brighton Court Rd Chula Vista, CA 91915 $389,995 1,216 sq. ft. 40,511 sq. ft. $321
2018-03-22 Condo 1370 Callejon Palacios Chula Vista, CA 91910 $415,000 1,420 sq. ft. $292
2018-03-22 Condo 1422 Carneros Valley St Chula Vista, CA 91913 $629,000 2,500 sq. ft. 4,792 sq. ft. $252
2018-03-21 Condo 1462 Caminito Sicilia Chula Vista, CA 91915 $469,000 1,445 sq. ft. $325
2018-03-21 Condo Contemporary 110 2nd Ave Chula Vista, CA 91910 $249,000 786 sq. ft. 172,062 sq. ft. $317
2018-03-21 Condo 1878 Fargo Lane Chula Vista, CA 91913 $385,000 1,237 sq. ft. $311
2018-03-21 Condo Contemporary 1408 Burgundy Dr Chula Vista, CA 91913 $399,000 1,500 sq. ft. $266
2018-03-20 Condo Traditional 757 Eastshore Terrace Chula Vista, CA 91913 $269,950 520 sq. ft. $519
2018-03-20 Condo 1216 Half Moon Bay Dr Chula Vista, CA 91915 $685,000 2,231 sq. ft. $307
2018-03-19 Condo 765 Paso De Luz 132 Chula Vista, CA 91911 $350,000 1,050 sq. ft. $333
2018-03-18 Condo Mediterranean/Spanish 2214 Andalusia Ln Chula Vista, CA 91915 $538,800 2,024 sq. ft. $266
2018-03-17 Condo 149 4th Ave Chula Vista, CA 91910 $375,000 1,392 sq. ft. $269
2018-03-17 Condo Traditional 1356 Sutter Buttes St Chula Vista, CA 91913 $588,000 2,099 sq. ft. 3,485 sq. ft. $280
2018-03-16 Condo Mediterranean/Spanish 784 Callecita Aquilla Sur Chula Vista, CA 91911 $399,990 1,034 sq. ft. 79,715 sq. ft. $387
2018-03-16 Condo 1720 Melrose Ave Chula Vista, CA 91911 $360,000 1,414 sq. ft. $255
2018-03-16 Condo 220 Otay Valley Rd Chula Vista, CA 91911 $349,900 1,212 sq. ft. $289
2018-03-16 Condo 285 Moss St Chula Vista, CA 91911 $189,000 621 sq. ft. $304
2018-03-15 Condo Mediterranean/Spanish 1457 Summit Dr Chula Vista, CA 91910 $419,900 1,217 sq. ft. $345
2018-03-15 Condo 1166 Pacifica Avenue Chula Vista, CA 91913 $748,300 3,206 sq. ft. 11,761 sq. ft. $233
2018-03-14 Condo Craftsman 1523 Apache Dr Chula Vista, CA 91910 $479,000 1,394 sq. ft. 1,307 sq. ft. $344
2018-03-14 Condo 1593 Corte Seville Chula Vista, CA 91913 $459,000 1,830 sq. ft. $251
2018-03-13 Condo 213 Otay Valley Rd Chula Vista, CA 91911 $339,000 1,212 sq. ft. $280
2018-03-13 Condo 1200 Calle Tesoro Chula Vista, CA 91915 $435,000 1,184 sq. ft. 46,609 sq. ft. $367
2018-03-13 Condo 765 Paso De Luz 130 Chula Vista, CA 91911 $350,000 1,040 sq. ft. $337
2018-03-13 Condo Contemporary 1484 Canvas Dr Chula Vista, CA 91913 $409,900 1,360 sq. ft. $301
2018-03-12 Condo Mediterranean/Spanish 1042 Torrey Pines Chula Vista, CA 91915 $585,000 2,236 sq. ft. $262
2018-03-12 Condo Cottage 1823 Vesta Dr Chula Vista, CA 91915 $611,990 2,659 sq. ft. $230
2018-03-12 Condo 1855 Observation Way Chula Vista, CA 91915 $386,000 1,288 sq. ft. $300
2018-03-12 Condo 1005 Plaza Oxalis Chula Vista, CA 91913 $440,420 1,710 sq. ft. $258
2018-03-12 Condo 1062 Torrey Pines Rd Chula Vista, CA 91915 $549,950 1,917 sq. ft. $287
2018-03-12 Condo 521 Orange Ave Chula Vista, CA 91911 $180,000 1,140 sq. ft. 2,614 sq. ft. $158
2018-03-11 Condo Modern 81 Sea Crest Drive Chula Vista, CA 91910 $471,490 1,785 sq. ft. $264
2018-03-10 Condo 1595 Mendocino Dr Chula Vista, CA 91911 $330,000 1,045 sq. ft. 1,742 sq. ft. $316
2018-03-10 Condo Cottage 1812 Lynx Terrace Chula Vista, CA 91915 $605,540 2,659 sq. ft. $228
2018-03-10 Condo 1400 Filmore Place Chula Vista, CA 91913 $525,000 1,756 sq. ft. $299
2018-03-09 Condo 2389 Adirondack Chula Vista, CA 92139 $375,000 1,183 sq. ft. $317
2018-03-09 Condo 2840 Athens Rd Chula Vista, CA 91915 $479,900 1,652 sq. ft. $290
2018-03-09 Condo 1005 Plaza Oxalis Chula Vista, CA 91913 $402,060 1,495 sq. ft. $269
2018-03-09 Condo 1886 Nantes Pl Chula Vista, CA 91913 $399,000 1,416 sq. ft. $282
2018-03-09 Condo 621 D Street Chula Vista, CA 91910 $329,900 1,067 sq. ft. $309
2018-03-09 Condo 1741 Cripple Creek Drive Chula Vista, CA 91915 $395,000 1,625 sq. ft. $243
2018-03-08 Condo 1431 Trouville Lane Chula Vista, CA 91913 $349,000 1,008 sq. ft. 23,087 sq. ft. $346
2018-03-08 Condo 28 Orange Ave Chula Vista, CA 91911 $289,000 924 sq. ft. 225,641 sq. ft. $313
2018-03-08 Condo 1640 Maple Dr Chula Vista, CA 91911 $375,000 1,576 sq. ft. $238
2018-03-07 Condo 1523 Laurel Grove Dr Chula Vista, CA 91915 $369,000 1,216 sq. ft. $303
2018-03-07 Condo Mediterranean/Spanish 1657 La Ribera Chula Vista, CA 91913 $429,900 1,588 sq. ft. $271
2018-03-07 Condo Mediterranean/Spanish 2726 Black Walnut Ct Chula Vista, CA 91915 $409,000 1,412 sq. ft. 83,635 sq. ft. $290
2018-03-07 Condo 1673 Melrose Ave Chula Vista, CA 91911 $339,000 1,074 sq. ft. $316
2018-03-06 Condo Mediterranean/Spanish 1284 Haglar Way Chula Vista, CA 91913 $415,000 1,237 sq. ft. $335
2018-03-06 Condo 1367 Burgundy Dr Chula Vista, CA 91913 $400,000 1,350 sq. ft. $296
2018-03-05 Condo Mediterranean/Spanish 2330 Greenbriar Dr Chula Vista, CA 91915 $489,000 1,600 sq. ft. 130,680 sq. ft. $306
2018-03-05 Condo 1646 Sourwood Place Chula Vista, CA 91915 $365,000 1,332 sq. ft. $274
2018-03-03 Condo 1883 Aquamarine Ct Chula Vista, CA 91913 $419,000 1,454 sq. ft. 472,626 sq. ft. $288
2018-03-02 Condo 1567 Apache Dr Chula Vista, CA 91910 $435,000 1,394 sq. ft. $312
2018-03-02 Condo Mediterranean/Spanish 1529 El Prado St Chula Vista, CA 91913 $370,000 1,163 sq. ft. 16,117 sq. ft. $318
2018-03-02 Condo Cottage 1819 Vesta Dr Chula Vista, CA 91915 $601,990 2,602 sq. ft. $231
2018-03-01 Condo Mediterranean/Spanish 2359 Eastridge Loop Chula Vista, CA 91915 $569,000 1,642 sq. ft. 3,920 sq. ft. $347
2018-03-01 Condo 2269 Huntington Point Rd Chula Vista, CA 91914 $400,000 1,410 sq. ft. $284
2018-03-01 Condo 1175 Pacific Grove Loop Chula Vista, CA 91915 $479,000 1,341 sq. ft. 64,904 sq. ft. $357
2018-03-01 Condo 1749 Cripple Creek Dr Chula Vista, CA 91915 $404,900 1,579 sq. ft. $256
2018-02-28 Condo 1353 Caminito Veranza Chula Vista, CA 91915 $445,000 1,460 sq. ft. 138,956 sq. ft. $305
2018-02-28 Condo 1510 El Prado St Chula Vista, CA 91913 $369,000 1,163 sq. ft. 20,909 sq. ft. $317
2018-02-28 Condo 1434 Hilltop Dr Chula Vista, CA 91911 $318,999 1,296 sq. ft. $246
2018-02-28 Condo 2380 Greenbriar Dr Chula Vista, CA 91915 $458,500 1,454 sq. ft. $315
2018-02-28 Condo 1401 Caminito Capistrano Chula Vista, CA 91913 $413,000 1,471 sq. ft. 57,935 sq. ft. $281
2018-02-27 Condo 2060 Barbados Cove Chula Vista, CA 91915 $425,000 1,525 sq. ft. $279
2018-02-27 Condo 600 Sheffield Chula Vista, CA 91910 $440,000 1,275 sq. ft. $345
2018-02-27 Condo Contemporary 1293 Fools Gold Way Chula Vista, CA 91913 $419,000 1,586 sq. ft. $264
2018-02-27 Condo 2750 Sparta Rd Chula Vista, CA 91915 $395,000 1,062 sq. ft. $372
2018-02-27 Condo 1720 Melrose Ave Chula Vista, CA 91911 $335,000 1,414 sq. ft. 871 sq. ft. $237
2018-02-27 Condo 1860 Toulouse Drive Chula Vista, CA 91913 $335,000 1,060 sq. ft. $316
2018-02-26 Condo Mediterranean/Spanish 1148 La Vida Court Chula Vista, CA 91915 $515,900 1,607 sq. ft. $321
2018-02-26 Condo Cottage 1816 Lynx Terrace Chula Vista, CA 91915 $595,990 2,602 sq. ft. $229
2018-02-26 Condo 2352 Palomira Ct Chula Vista, CA 91915 $529,900 1,775 sq. ft. $299
2018-02-26 Condo 2368 Element Way Chula Vista, CA 91915 $586,844 2,157 sq. ft. $272
2018-02-26 Condo 2341 Greenbriar Dr Chula Vista, CA 91915 $435,900 1,268 sq. ft. $344
2018-02-26 Condo 592 Nantucket Dr Chula Vista, CA 91911 $498,900 1,160 sq. ft. 6,098 sq. ft. $430
2018-02-26 Condo 2379 Element Way Chula Vista, CA 91915 $441,947 1,475 sq. ft. $300
2018-02-26 Condo 2722 Castlehill Rd Chula Vista, CA 91915 $435,000 1,646 sq. ft. $264
2018-02-26 Condo 1853 Rue Bienville Pl Chula Vista, CA 91913 $349,900 1,066 sq. ft. $328
2018-02-26 Condo 2144 Big Horn Dr Chula Vista, CA 91915 $375,000 1,279 sq. ft. 671,260 sq. ft. $293
2018-02-26 Condo 1539 Sonora Drive Chula Vista, CA 91911 $390,000 1,460 sq. ft. $267
2018-02-26 Condo 37 Tamarindo Way Chula Vista, CA 91911 $275,000 924 sq. ft. 225,641 sq. ft. $298
2018-02-16 Condo 1154 Pacific Grove Loop Chula Vista, CA 91915 $485,000 1,544 sq. ft. $314
2018-02-15 Condo 2163 Dutchman Ct Chula Vista, CA 91915 $418,900 1,464 sq. ft. $286
2018-02-15 Condo 1510 Connoley Ave Chula Vista, CA 91911 $340,000 1,513 sq. ft. 3,485 sq. ft. $225
2018-02-15 Condo 1487 De La Vina St Chula Vista, CA 91913 $489,900 1,694 sq. ft. 206,474 sq. ft. $289
2018-02-15 Condo 468 Anna Linda Ct Chula Vista, CA 91911 $369,000 1,332 sq. ft. 3,049 sq. ft. $277
2018-02-14 Condo Traditional 1452 Santa Victoria Rd Chula Vista, CA 91913 $449,900 1,588 sq. ft. $283
2018-02-14 Condo 1025 Fourth Ave Chula Vista, CA 91911 $284,900 860 sq. ft. 26,572 sq. ft. $331
2018-02-14 Condo 1450 Melrose Avenue 127 Chula Vista, CA 91911 $289,900 980 sq. ft. $296
2018-02-13 Condo Mediterranean/Spanish 725 Brookstone Rd Chula Vista, CA 91913 $378,000 1,166 sq. ft. 92,783 sq. ft. $324
2018-02-13 Condo 1740 Regency Way Chula Vista, CA 91911 $350,000 1,212 sq. ft. $289
2018-02-12 Condo 88 Fourth Avenue Chula Vista, CA 91910 $389,900 1,291 sq. ft. $302
2018-02-12 Condo 521 Orange Ave Chula Vista, CA 91911 $189,900 1,368 sq. ft. $139
2018-02-10 Condo 420 Sanibelle Circle Chula Vista, CA 91910 $365,000 920 sq. ft. $397
2018-02-06 Condo 2192 Caminito Rinaldo Chula Vista, CA 91915 $289,000 1,336 sq. ft. 69,696 sq. ft. $216
2018-02-06 Condo 1729 Cripple Creek Dr Chula Vista, CA 91915 $400,000 1,625 sq. ft. 329,749 sq. ft. $246
2018-02-06 Condo Contemporary 1261 El Cortez Chula Vista, CA 91910 $389,000 1,130 sq. ft. $344
2018-02-05 Condo 1391 Stanislaus Dr Chula Vista, CA 91913 $735,000 3,243 sq. ft. 6,098 sq. ft. $227
2018-02-03 Condo Mediterranean/Spanish 744 Eastshore Ter Chula Vista, CA 91913 $245,000 441 sq. ft. 14,375 sq. ft. $556
2018-02-02 Condo 2154 Caminito Cinzia Chula Vista, CA 91915 $485,000 1,656 sq. ft. $293
2018-02-01 Condo 2004 Caminito De La Cruz Chula Vista, CA 91913 $375,000 1,400 sq. ft. $268
2018-02-01 Condo Mediterranean/Spanish 2185 Caminito Novara Chula Vista, CA 91915 $484,900 1,656 sq. ft. $293
2018-01-31 Condo 288 Salinas Dr Chula Vista, CA 91914 $420,000 1,372 sq. ft. $306
2018-01-31 Condo 1297 Fools Gold Way Chula Vista, CA 91913 $354,900 1,071 sq. ft. 33,106 sq. ft. $331
2018-01-30 Condo 1826 Carolyn Drive Chula Vista, CA 91913 $525,000 1,980 sq. ft. $265
2018-01-30 Condo 1325 Caminito Capistrano Chula Vista, CA 91913 $399,900 1,471 sq. ft. $272
2018-01-26 Condo 1443 Santa Rita Chula Vista, CA 91913 $519,900 1,598 sq. ft. $325
2018-01-25 Condo Mediterranean/Spanish 948 Caminito Estrella Chula Vista, CA 91910 $430,000 1,350 sq. ft. $319
2018-01-24 Condo 1539 Sonora Drive Chula Vista, CA 91911 $359,900 1,400 sq. ft. $257
2018-01-24 Condo Mediterranean/Spanish 2286 Alicante Cove Chula Vista, CA 91914 $465,000 1,554 sq. ft. $299
2018-01-23 Condo 1508 Caminito Santiago Chula Vista, CA 91913 $475,000 1,830 sq. ft. $260
2018-01-23 Condo 1420 Hilltop Drive Chula Vista, CA 91911 $275,000 1,004 sq. ft. $274
2018-01-19 Condo 2212 Caminito Livorno Chula Vista, CA 91915 $429,000 1,432 sq. ft. $300
2018-01-18 Condo 1331 Caminito Fabrizio Chula Vista, CA 91915 $415,000 1,558 sq. ft. 74,052 sq. ft. $266
2018-01-18 Condo 2077 Lakeridge Circle Chula Vista, CA 91913 $375,000 1,166 sq. ft. $322
2018-01-16 Condo 1321 Caminito Montarosa Chula Vista, CA 91915 $375,900 1,386 sq. ft. $271
2018-01-16 Condo 1355 Nicolette Ave Chula Vista, CA 91913 $310,000 975 sq. ft. 524,462 sq. ft. $318
2018-01-15 Condo 2834 Athens Rd Chula Vista, CA 91915 $415,000 1,331 sq. ft. $312
2018-01-13 Condo Traditional 1640 Maple Dr Chula Vista, CA 91911 $365,000 1,576 sq. ft. $232
2018-01-11 Condo 2106 Element Way Chula Vista, CA 91915 $594,620 2,248 sq. ft. $265
2018-01-11 Condo 2384 Element Way Chula Vista, CA 91915 $427,000 1,430 sq. ft. $299
2018-01-09 Condo 1563 Prescott Dr Chula Vista, CA 91915 $429,000 1,410 sq. ft. 64,033 sq. ft. $304
2018-01-09 Condo 2155 Caminito Leonzio Chula Vista, CA 91915 $350,000 1,336 sq. ft. $262
2018-01-08 Condo 1372 Nicolette Ave Chula Vista, CA 91913 $329,900 959 sq. ft. 524,462 sq. ft. $344
2018-01-05 Condo 409 Woodlawn Avenue Chula Vista, CA 91910 $310,000 1,056 sq. ft. $294
2018-01-04 Condo 748 Eastshore Ter Chula Vista, CA 91913 $325,000 752 sq. ft. 33,106 sq. ft. $432
2018-01-03 Condo 2046 Azure Cv Chula Vista, CA 91915 $417,000 1,525 sq. ft. 84,071 sq. ft. $273
2017-12-21 Condo 110 2nd Ave Chula Vista, CA 91910 $280,000 1,003 sq. ft. 172,062 sq. ft. $279
2017-12-08 Condo 734 Eastshore Terrace Chula Vista, CA 91913 $334,900 937 sq. ft. $357
2017-12-04 Condo 1434 Hilltop Drive Chula Vista, CA 91911 $287,000 1,036 sq. ft. $277
2017-12-01 Condo 368 Vance Street Chula Vista, CA 91910 $278,000 876 sq. ft. $317
2017-11-28 Condo 1305 Mother Lode Way Chula Vista, CA 91913 $419,900 1,586 sq. ft. $265
2017-11-26 Condo Modern 52 Sea Crest Drive Chula Vista, CA 91910 $549,990 1,708 sq. ft. $322
2017-11-26 Condo Modern 44 Sea Crest Drive Chula Vista, CA 91910 $589,990 1,938 sq. ft. $304
2017-11-18 Condo Mediterranean/Spanish 1327 Claim Jumper Chula Vista, CA 91913 $424,000 1,586 sq. ft. 38,768 sq. ft. $267
2017-11-15 Condo 2176 Element Way Chula Vista, CA 91915 $612,099 2,157 sq. ft. $284
2017-11-14 Condo 1872 Observation Way Chula Vista, CA 91915 $396,010 1,430 sq. ft. $277
2017-11-06 Condo 588 Portsmouth Drive Chula Vista, CA 91911 $369,000 1,274 sq. ft. $290
2017-11-02 Condo 1165 Hanford Court Chula Vista, CA 91913 $698,888 2,519 sq. ft. 8,712 sq. ft. $277
2017-11-02 Condo Modern 720 Harbor Lane Chula Vista, CA 91910 $555,990 1,938 sq. ft. $287
2017-10-30 Condo 683 Arrow Point Court Chula Vista, CA 91911 $400,000 2,262 sq. ft. $177
2017-10-27 Condo Contemporary 1449 Normandy Drive Chula Vista, CA 91913 $395,000 1,500 sq. ft. $263
2017-10-26 Condo 757 Eastshore Terrace Chula Vista, CA 91913 $317,000 757 sq. ft. $419
2017-10-25 Condo 1812 Olive Green St Chula Vista, CA 91913 $425,000 1,565 sq. ft. $272
2017-10-16 Condo 2155 Caminito Leonzio Chula Vista, CA 91915 $345,000 1,558 sq. ft. $221
2017-10-16 Condo 1397 Misty Ridge Place Chula Vista, CA 91913 $649,900 2,485 sq. ft. $262
2017-10-15 Condo 1595 Mendocino Dr Chula Vista, CA 91911 $299,900 1,045 sq. ft. $287
2017-10-13 Condo 355 Windjammer Circle Chula Vista, CA 91910 $395,000 975 sq. ft. $405
2017-10-12 Condo Contemporary 1889 Miner Creek Lane Chula Vista, CA 91913 $339,800 1,032 sq. ft. $329
2017-10-11 Condo 1811 Lime Ct Chula Vista, CA 91913 $415,000 1,419 sq. ft. 472,626 sq. ft. $292
2017-09-28 Condo 1548 Dusk Sky Lane Chula Vista, CA 91915 $375,000 1,344 sq. ft. $279
2017-09-18 Condo Modern 710 Anchor Court Chula Vista, CA 91910 $446,490 1,708 sq. ft. $261
2017-09-16 Condo 1640 Maple Dr Chula Vista, CA 91911 $375,000 1,543 sq. ft. 504,860 sq. ft. $243
2017-08-28 Condo 2162 Element Way Chula Vista, CA 91915 $609,080 2,248 sq. ft. $271
2017-08-16 Condo 2379 Element Way Chula Vista, CA 91915 $402,000 1,475 sq. ft. $273
2017-08-16 Condo 2166 Element Way Chula Vista, CA 91915 $618,330 2,248 sq. ft. $275
2017-08-16 Condo 2379 Element Way Chula Vista, CA 91915 $367,000 1,288 sq. ft. $285
2017-08-16 Condo 2379 Element Way Chula Vista, CA 91915 $388,000 1,430 sq. ft. $271
2017-07-11 Condo 764 Eastshore Ter Chula Vista, CA 91913 $299,900 669 sq. ft. 28,750 sq. ft. $448
2017-07-01 Condo 2176 Element Way Chula Vista, CA 91915 $573,490 2,157 sq. ft. $266
2017-06-19 Condo 2134 Dune Evening Drive Chula Vista, CA 91915 $450,000 1,713 sq. ft. $263
2016-06-15 Condo 2134 Northshore Chula Vista, CA 91913 $375,000 1,570 sq. ft. $239
2016-05-13 Condo 1446 Caminito Sardinia Chula Vista, CA 91915 $420,000 1,810 sq. ft. $232